createdAt,value
2017-04-23T00:00:20.498Z,0
2017-04-23T00:01:20.820Z,0
2017-04-23T00:02:35.454Z,0
2017-04-23T00:03:20.853Z,0
2017-04-23T00:04:20.893Z,0
2017-04-23T00:06:20.606Z,0
2017-04-23T00:07:20.927Z,0
2017-04-23T00:08:20.639Z,0
2017-04-23T00:09:20.961Z,0
2017-04-23T00:10:20.980Z,0
2017-04-23T00:11:20.996Z,0
2017-04-23T00:12:21.014Z,0
2017-04-23T00:13:20.733Z,0
2017-04-23T00:14:21.050Z,0
2017-04-23T00:15:35.380Z,0
2017-04-23T00:16:21.088Z,0
2017-04-23T00:17:35.417Z,0
2017-04-23T00:18:21.130Z,0
2017-04-23T00:19:21.145Z,0
2017-04-23T00:21:20.881Z,0
2017-04-23T00:22:21.192Z,0
2017-04-23T00:23:21.210Z,0
2017-04-23T00:24:21.232Z,0
2017-04-23T00:25:21.251Z,0
2017-04-23T00:26:21.265Z,0
2017-04-23T00:27:21.279Z,0
2017-04-23T00:28:21.296Z,0
2017-04-23T00:29:21.316Z,0
2017-04-23T00:30:21.332Z,0
2017-04-23T00:31:21.352Z,0
2017-04-23T00:32:21.064Z,0
2017-04-23T00:33:21.385Z,0
2017-04-23T00:34:21.105Z,0
2017-04-23T00:35:21.427Z,0
2017-04-23T00:36:21.454Z,0
2017-04-23T00:37:21.456Z,0
2017-04-23T00:38:21.474Z,0
2017-04-23T00:39:21.190Z,0
2017-04-23T00:40:21.510Z,0
2017-04-23T00:41:21.535Z,0
2017-04-23T00:42:21.547Z,0
2017-04-23T00:43:36.180Z,0
2017-04-23T00:44:36.197Z,0
2017-04-23T00:45:36.217Z,0
2017-04-23T00:46:36.233Z,0
2017-04-23T00:47:21.635Z,0
2017-04-23T00:48:36.268Z,0
2017-04-23T00:49:36.288Z,0
2017-04-23T00:50:21.698Z,0
2017-04-23T00:52:21.731Z,0
2017-04-23T00:53:21.743Z,0
2017-04-23T00:54:21.152Z,0
2017-04-23T00:55:21.776Z,0
2017-04-23T00:56:21.793Z,0
2017-04-23T00:57:21.813Z,0
2017-04-23T00:58:21.829Z,0
2017-04-23T00:59:21.864Z,0
2017-04-23T01:01:21.881Z,0
2017-04-23T01:02:21.301Z,0
2017-04-23T01:04:21.940Z,0
2017-04-23T01:05:36.572Z,0
2017-04-23T01:06:21.667Z,0
2017-04-23T01:08:21.705Z,0
2017-04-23T01:09:22.027Z,0
2017-04-23T01:10:22.056Z,0
2017-04-23T01:11:21.459Z,0
2017-04-23T01:12:22.082Z,0
2017-04-23T01:13:36.714Z,0
2017-04-23T01:14:22.111Z,0
2017-04-23T01:16:22.150Z,0
2017-04-23T01:17:22.167Z,0
2017-04-23T01:18:22.189Z,0
2017-04-23T01:19:22.205Z,0
2017-04-23T01:20:21.916Z,0
2017-04-23T01:21:36.853Z,0
2017-04-23T01:22:22.254Z,0
2017-04-23T01:23:21.971Z,0
2017-04-23T01:24:21.989Z,0
2017-04-23T01:25:22.005Z,0
2017-04-23T01:26:22.326Z,0
2017-04-23T01:27:22.344Z,0
2017-04-23T01:28:22.359Z,0
2017-04-23T01:29:22.082Z,0
2017-04-23T01:30:22.397Z,0
2017-04-23T01:31:22.418Z,0
2017-04-23T01:32:37.059Z,0
2017-04-23T01:33:22.451Z,0
2017-04-23T01:34:22.479Z,0
2017-04-23T01:35:37.113Z,0
2017-04-23T01:36:37.128Z,0
2017-04-23T01:37:37.138Z,0
2017-04-23T01:38:22.541Z,0
2017-04-23T01:39:22.557Z,0
2017-04-23T01:40:22.575Z,0
2017-04-23T01:41:22.592Z,0
2017-04-23T01:42:22.310Z,0
2017-04-23T01:43:22.628Z,0
2017-04-23T01:44:22.342Z,0
2017-04-23T01:45:22.681Z,0
2017-04-23T01:46:22.685Z,0
2017-04-23T01:47:37.317Z,0
2017-04-23T01:48:22.720Z,0
2017-04-23T01:49:22.737Z,0
2017-04-23T01:50:37.373Z,0
2017-04-23T01:51:22.774Z,0
2017-04-23T01:53:22.811Z,0
2017-04-23T01:54:22.836Z,0
2017-04-23T01:55:22.850Z,0
2017-04-23T01:56:22.868Z,0
2017-04-23T01:57:22.878Z,0
2017-04-23T01:58:22.897Z,0
2017-04-23T01:59:22.920Z,0
2017-04-23T02:00:22.932Z,0
2017-04-23T02:01:22.952Z,0
2017-04-23T02:02:22.967Z,0
2017-04-23T02:03:22.989Z,0
2017-04-23T02:05:23.020Z,0
2017-04-23T02:06:23.041Z,0
2017-04-23T02:09:23.099Z,0
2017-04-23T02:10:23.111Z,0
2017-04-23T02:11:23.127Z,0
2017-04-23T02:12:23.150Z,0
2017-04-23T02:13:22.862Z,0
2017-04-23T02:14:23.184Z,0
2017-04-23T02:15:23.201Z,0
2017-04-23T02:16:23.214Z,0
2017-04-23T02:17:22.932Z,0
2017-04-23T02:18:37.872Z,0
2017-04-23T02:19:23.272Z,0
2017-04-23T02:20:37.904Z,0
2017-04-23T02:21:37.924Z,0
2017-04-23T02:22:23.323Z,0
2017-04-23T02:23:23.347Z,0
2017-04-23T02:24:37.975Z,0
2017-04-23T02:26:23.395Z,0
2017-04-23T02:27:23.107Z,0
2017-04-23T02:28:23.129Z,0
2017-04-23T02:29:23.453Z,0
2017-04-23T02:30:23.464Z,0
2017-04-23T02:31:23.481Z,0
2017-04-23T02:32:23.500Z,0
2017-04-23T02:33:23.523Z,0
2017-04-23T02:34:23.535Z,0
2017-04-23T02:35:23.250Z,0
2017-04-23T02:36:22.973Z,0
2017-04-23T02:38:23.611Z,0
2017-04-23T02:40:38.258Z,0
2017-04-23T02:41:23.659Z,0
2017-04-23T02:42:23.375Z,0
2017-04-23T02:43:23.108Z,0
2017-04-23T02:44:23.417Z,0
2017-04-23T02:45:23.427Z,0
2017-04-23T02:46:23.751Z,0
2017-04-23T02:47:23.767Z,0
2017-04-23T02:49:23.803Z,0
2017-04-23T02:50:23.829Z,0
2017-04-23T02:51:23.842Z,0
2017-04-23T02:52:23.856Z,0
2017-04-23T02:53:23.885Z,0
2017-04-23T02:54:23.893Z,0
2017-04-23T02:55:23.604Z,0
2017-04-23T02:56:38.544Z,0
2017-04-23T02:57:23.639Z,0
2017-04-23T02:58:23.969Z,0
2017-04-23T02:59:23.985Z,0
2017-04-23T03:00:24.000Z,0
2017-04-23T03:01:24.015Z,0
2017-04-23T03:02:23.733Z,0
2017-04-23T03:03:24.060Z,0
2017-04-23T03:04:24.072Z,0
2017-04-23T03:05:24.086Z,0
2017-04-23T03:06:24.107Z,0
2017-04-23T03:07:24.126Z,0
2017-04-23T03:08:24.143Z,0
2017-04-23T03:09:24.164Z,0
2017-04-23T03:10:24.179Z,0
2017-04-23T03:11:23.889Z,0
2017-04-23T03:12:38.831Z,0
2017-04-23T03:13:24.231Z,0
2017-04-23T03:14:24.250Z,0
2017-04-23T03:15:23.966Z,0
2017-04-23T03:16:24.292Z,0
2017-04-23T03:17:24.303Z,0
2017-04-23T03:18:24.321Z,0
2017-04-23T03:19:24.336Z,4
2017-04-23T03:20:38.668Z,4
2017-04-23T03:21:24.372Z,0
2017-04-23T03:22:24.389Z,0
2017-04-23T03:23:24.431Z,4
2017-04-23T03:24:24.129Z,4
2017-04-23T03:25:24.444Z,4
2017-04-23T03:26:24.159Z,4
2017-04-23T03:27:39.099Z,4
2017-04-23T03:28:24.501Z,8
2017-04-23T03:29:24.522Z,4
2017-04-23T03:30:24.230Z,8
2017-04-23T03:31:24.552Z,8
2017-04-23T03:32:24.269Z,8
2017-04-23T03:33:24.286Z,12
2017-04-23T03:34:24.304Z,12
2017-04-23T03:35:24.626Z,16
2017-04-23T03:36:24.642Z,20
2017-04-23T03:37:24.355Z,24
2017-04-23T03:38:24.397Z,32
2017-04-23T03:39:24.393Z,36
2017-04-23T03:40:24.715Z,44
2017-04-23T03:41:24.734Z,60
2017-04-23T03:42:24.751Z,68
2017-04-23T03:43:24.771Z,76
2017-04-23T03:44:24.784Z,84
2017-04-23T03:45:24.801Z,100
2017-04-23T03:46:24.821Z,104
2017-04-23T03:47:24.835Z,112
2017-04-23T03:48:24.552Z,108
2017-04-23T03:49:24.891Z,116
2017-04-23T03:50:24.892Z,120
2017-04-23T03:51:24.908Z,136
2017-04-23T03:52:24.320Z,144
2017-04-23T03:53:24.948Z,136
2017-04-23T03:54:24.964Z,140
2017-04-23T03:55:24.676Z,140
2017-04-23T03:57:25.018Z,152
2017-04-23T03:58:25.036Z,160
2017-04-23T03:59:39.676Z,176
2017-04-23T04:00:25.070Z,188
2017-04-23T04:01:24.787Z,188
2017-04-23T04:02:24.803Z,180
2017-04-23T04:03:25.131Z,184
2017-04-23T04:04:39.459Z,196
2017-04-23T04:05:25.164Z,204
2017-04-23T04:06:25.177Z,212
2017-04-23T04:07:39.815Z,232
2017-04-23T04:08:25.224Z,244
2017-04-23T04:09:25.237Z,260
2017-04-23T04:10:25.249Z,284
2017-04-23T04:11:25.268Z,312
2017-04-23T04:12:39.902Z,372
2017-04-23T04:13:25.305Z,416
2017-04-23T04:14:25.320Z,456
2017-04-23T04:15:39.959Z,464
2017-04-23T04:16:25.356Z,464
2017-04-23T04:17:25.378Z,472
2017-04-23T04:18:25.089Z,520
2017-04-23T04:19:25.417Z,536
2017-04-23T04:20:25.431Z,508
2017-04-23T04:21:25.144Z,488
2017-04-23T04:22:25.162Z,504
2017-04-23T04:23:25.485Z,508
2017-04-23T04:24:40.119Z,524
2017-04-23T04:25:25.524Z,532
2017-04-23T04:26:25.234Z,560
2017-04-23T04:27:40.176Z,608
2017-04-23T04:30:25.307Z,688
2017-04-23T04:31:39.944Z,608
2017-04-23T04:33:25.668Z,572
2017-04-23T04:34:25.684Z,608
2017-04-23T04:36:25.726Z,604
2017-04-23T04:37:25.738Z,596
2017-04-23T04:38:25.757Z,596
2017-04-23T04:39:25.774Z,620
2017-04-23T04:40:25.488Z,628
2017-04-23T04:41:40.121Z,636
2017-04-23T04:42:25.824Z,668
2017-04-23T04:43:40.467Z,696
2017-04-23T04:44:25.863Z,688
2017-04-23T04:46:40.513Z,668
2017-04-23T04:47:40.535Z,692
2017-04-23T04:49:25.958Z,772
2017-04-23T04:50:25.971Z,816
2017-04-23T04:51:25.991Z,848
2017-04-23T04:52:26.009Z,896
2017-04-23T04:53:26.029Z,972
2017-04-23T04:54:40.664Z,1208
2017-04-23T04:55:26.064Z,1388
2017-04-23T04:56:40.698Z,1332
2017-04-23T04:57:26.105Z,1408
2017-04-23T04:59:40.779Z,1392
2017-04-23T05:00:26.155Z,1320
2017-04-23T05:01:26.170Z,1316
2017-04-23T05:02:40.811Z,1340
2017-04-23T05:03:26.214Z,1436
2017-04-23T05:04:25.931Z,1424
2017-04-23T05:05:26.246Z,1568
2017-04-23T05:06:26.264Z,1692
2017-04-23T05:07:26.283Z,1768
2017-04-23T05:08:26.298Z,1596
2017-04-23T05:09:26.329Z,1500
2017-04-23T05:10:26.032Z,1412
2017-04-23T05:11:26.365Z,1400
2017-04-23T05:12:26.069Z,1404
2017-04-23T05:13:26.398Z,1616
2017-04-23T05:14:26.413Z,1748
2017-04-23T05:15:41.045Z,1644
2017-04-23T05:16:41.062Z,1564
2017-04-23T05:17:26.467Z,1400
2017-04-23T05:18:25.882Z,1400
2017-04-23T05:19:26.502Z,1288
2017-04-23T05:20:26.521Z,1288
2017-04-23T05:21:26.547Z,1200
2017-04-23T05:23:26.578Z,1152
2017-04-23T05:24:26.608Z,1296
2017-04-23T05:25:26.613Z,1328
2017-04-23T05:26:26.631Z,1380
2017-04-23T05:27:26.647Z,1508
2017-04-23T05:28:26.667Z,1556
2017-04-23T05:29:26.686Z,1492
2017-04-23T05:30:41.318Z,1444
2017-04-23T05:31:26.723Z,1520
2017-04-23T05:32:41.053Z,1696
2017-04-23T05:33:26.766Z,1808
2017-04-23T05:34:41.396Z,2008
2017-04-23T05:35:26.495Z,2036
2017-04-23T05:36:26.819Z,2136
2017-04-23T05:38:26.853Z,2400
2017-04-23T05:39:26.869Z,2412
2017-04-23T05:41:26.904Z,2420
2017-04-23T05:42:26.923Z,2492
2017-04-23T05:43:26.942Z,2464
2017-04-23T05:44:41.578Z,2636
2017-04-23T05:46:27.002Z,2540
2017-04-23T05:47:27.017Z,2440
2017-04-23T05:48:41.654Z,2392
2017-04-23T05:49:27.056Z,2412
2017-04-23T05:50:41.689Z,2280
2017-04-23T05:52:27.111Z,2176
2017-04-23T05:53:27.131Z,2216
2017-04-23T05:54:27.149Z,2308
2017-04-23T05:55:26.867Z,2536
2017-04-23T05:56:26.881Z,2604
2017-04-23T05:57:26.902Z,2536
2017-04-23T05:58:26.922Z,2576
2017-04-23T05:59:27.243Z,2568
2017-04-23T06:00:27.260Z,2616
2017-04-23T06:02:27.308Z,3020
2017-04-23T06:03:27.316Z,2824
2017-04-23T06:04:27.334Z,3068
2017-04-23T06:05:27.354Z,3084
2017-04-23T06:06:41.988Z,3004
2017-04-23T06:09:27.130Z,2656
2017-04-23T06:10:27.446Z,2972
2017-04-23T06:11:27.466Z,2496
2017-04-23T06:12:27.490Z,1824
2017-04-23T06:13:27.202Z,1804
2017-04-23T06:14:27.532Z,1900
2017-04-23T06:15:27.547Z,1984
2017-04-23T06:16:27.563Z,1624
2017-04-23T06:17:42.196Z,1432
2017-04-23T06:18:42.216Z,1144
2017-04-23T06:19:27.622Z,1144
2017-04-23T06:20:27.636Z,1332
2017-04-23T06:21:27.656Z,1204
2017-04-23T06:22:42.293Z,1564
2017-04-23T06:23:27.697Z,1748
2017-04-23T06:24:27.720Z,1744
2017-04-23T06:25:27.749Z,2800
2017-04-23T06:26:27.758Z,2876
2017-04-23T06:27:27.470Z,2632
2017-04-23T06:28:27.803Z,3192
2017-04-23T06:29:27.809Z,3256
2017-04-23T06:30:27.828Z,3040
2017-04-23T06:31:42.462Z,3504
2017-04-23T06:32:27.861Z,4004
2017-04-23T06:34:27.901Z,3992
2017-04-23T06:35:27.619Z,4204
2017-04-23T06:36:27.940Z,4324
2017-04-23T06:37:42.577Z,4196
2017-04-23T06:38:42.604Z,4268
2017-04-23T06:39:28.004Z,4300
2017-04-23T06:40:28.020Z,4124
2017-04-23T06:41:28.037Z,4036
2017-04-23T06:42:28.055Z,3952
2017-04-23T06:43:28.083Z,3816
2017-04-23T06:44:28.094Z,3664
2017-04-23T06:45:28.112Z,3500
2017-04-23T06:46:28.127Z,3248
2017-04-23T06:47:28.153Z,2884
2017-04-23T06:48:28.170Z,2908
2017-04-23T06:49:27.884Z,3044
2017-04-23T06:50:42.831Z,2824
2017-04-23T06:51:42.538Z,2672
2017-04-23T06:52:28.251Z,2748
2017-04-23T06:53:27.961Z,2956
2017-04-23T06:54:28.287Z,3152
2017-04-23T06:56:28.326Z,2964
2017-04-23T06:57:28.340Z,2580
2017-04-23T06:58:28.417Z,2612
2017-04-23T06:59:28.382Z,2776
2017-04-23T07:00:28.401Z,3168
2017-04-23T07:01:28.419Z,3064
2017-04-23T07:02:28.436Z,3120
2017-04-23T07:03:28.464Z,2920
2017-04-23T07:04:28.480Z,2616
2017-04-23T07:05:28.496Z,2472
2017-04-23T07:06:28.524Z,2460
2017-04-23T07:07:28.533Z,2772
2017-04-23T07:08:28.562Z,3488
2017-04-23T07:09:43.188Z,3636
2017-04-23T07:10:28.594Z,3392
2017-04-23T07:12:28.630Z,2968
2017-04-23T07:13:28.650Z,3132
2017-04-23T07:14:28.672Z,3436
2017-04-23T07:15:28.690Z,3488
2017-04-23T07:16:28.706Z,4096
2017-04-23T07:17:28.724Z,4784
2017-04-23T07:18:43.363Z,5680
2017-04-23T07:19:28.765Z,6000
2017-04-23T07:20:28.783Z,5728
2017-04-23T07:21:28.800Z,5708
2017-04-23T07:22:43.436Z,7100
2017-04-23T07:23:43.456Z,9076
2017-04-23T07:24:28.864Z,9284
2017-04-23T07:25:43.501Z,5844
2017-04-23T07:26:28.902Z,4340
2017-04-23T07:28:28.964Z,4496
2017-04-23T07:29:28.956Z,5528
2017-04-23T07:30:28.974Z,6632
2017-04-23T07:31:28.993Z,6788
2017-04-23T07:32:43.634Z,6628
2017-04-23T07:33:29.032Z,6808
2017-04-23T07:34:29.052Z,6312
2017-04-23T07:35:29.072Z,6484
2017-04-23T07:36:29.091Z,7056
2017-04-23T07:37:43.733Z,6916
2017-04-23T07:38:29.158Z,6480
2017-04-23T07:39:29.151Z,6192
2017-04-23T07:40:29.171Z,6216
2017-04-23T07:41:43.804Z,7736
2017-04-23T07:42:29.211Z,8244
2017-04-23T07:43:29.232Z,9040
2017-04-23T07:44:29.256Z,9252
2017-04-23T07:45:28.962Z,12320
2017-04-23T07:46:29.290Z,13688
2017-04-23T07:47:29.307Z,13268
2017-04-23T07:48:29.031Z,12468
2017-04-23T07:49:29.350Z,11336
2017-04-23T07:50:43.985Z,9904
2017-04-23T07:51:44.005Z,10288
2017-04-23T07:52:44.029Z,11380
2017-04-23T07:53:29.431Z,12008
2017-04-23T07:54:29.452Z,13264
2017-04-23T07:55:44.114Z,13104
2017-04-23T07:57:44.126Z,11268
2017-04-23T07:58:29.534Z,9688
2017-04-23T07:59:29.557Z,9208
2017-04-23T08:00:29.577Z,9284
2017-04-23T08:01:29.297Z,8168
2017-04-23T08:02:29.624Z,5300
2017-04-23T08:03:29.637Z,4536
2017-04-23T08:04:29.660Z,4488
2017-04-23T08:05:29.677Z,5564
2017-04-23T08:06:44.314Z,5148
2017-04-23T08:07:29.716Z,4844
2017-04-23T08:08:29.742Z,4808
2017-04-23T08:09:29.763Z,5596
2017-04-23T08:10:29.780Z,7128
2017-04-23T08:11:29.801Z,7208
2017-04-23T08:12:44.441Z,7420
2017-04-23T08:13:29.845Z,7272
2017-04-23T08:14:29.867Z,5504
2017-04-23T08:15:29.884Z,4304
2017-04-23T08:16:29.602Z,4116
2017-04-23T08:17:29.928Z,4076
2017-04-23T08:19:29.968Z,2392
2017-04-23T08:20:29.989Z,2364
2017-04-23T08:21:30.007Z,2892
2017-04-23T08:22:29.727Z,3132
2017-04-23T08:23:30.053Z,3488
2017-04-23T08:24:44.686Z,4136
2017-04-23T08:25:30.089Z,3996
2017-04-23T08:26:30.109Z,4824
2017-04-23T08:27:29.826Z,16048
2017-04-23T08:28:30.149Z,12036
2017-04-23T08:29:30.178Z,15820
2017-04-23T08:31:30.227Z,18528
2017-04-23T08:32:30.233Z,18496
2017-04-23T08:33:30.268Z,24352
2017-04-23T08:34:30.274Z,16384
2017-04-23T08:35:30.296Z,16488
2017-04-23T08:36:30.319Z,14372
2017-04-23T08:37:30.339Z,14120
2017-04-23T08:38:30.362Z,13948
2017-04-23T08:39:30.380Z,11028
2017-04-23T08:40:45.018Z,9296
2017-04-23T08:41:45.041Z,10204
2017-04-23T08:42:30.443Z,11768
2017-04-23T08:43:30.468Z,14040
2017-04-23T08:44:45.103Z,12900
2017-04-23T08:45:30.506Z,12296
2017-04-23T08:47:30.585Z,11772
2017-04-23T08:49:30.599Z,13520
2017-04-23T08:50:30.616Z,10288
2017-04-23T08:51:30.643Z,9064
2017-04-23T08:52:30.355Z,7404
2017-04-23T08:53:45.305Z,6640
2017-04-23T08:54:45.321Z,6652
2017-04-23T08:55:30.727Z,7168
2017-04-23T08:56:30.443Z,9948
2017-04-23T08:57:30.770Z,12396
2017-04-23T08:58:30.492Z,14384
2017-04-23T08:59:30.821Z,12320
2017-04-23T09:00:45.450Z,10508
2017-04-23T09:02:30.881Z,8812
2017-04-23T09:03:30.898Z,7804
2017-04-23T09:04:30.920Z,7768
2017-04-23T09:05:30.941Z,8668
2017-04-23T09:06:30.964Z,6876
2017-04-23T09:07:30.994Z,5600
2017-04-23T09:08:30.702Z,5592
2017-04-23T09:09:45.644Z,5968
2017-04-23T09:10:31.051Z,6360
2017-04-23T09:11:30.765Z,6008
2017-04-23T09:12:31.091Z,5200
2017-04-23T09:13:45.730Z,4356
2017-04-23T09:14:31.141Z,3880
2017-04-23T09:15:31.153Z,3800
2017-04-23T09:16:45.793Z,4464
2017-04-23T09:17:30.906Z,5524
2017-04-23T09:18:31.228Z,8480
2017-04-23T09:19:31.242Z,14732
2017-04-23T09:20:31.257Z,18656
2017-04-23T09:21:31.280Z,18528
2017-04-23T09:22:31.303Z,18624
2017-04-23T09:23:31.326Z,19296
2017-04-23T09:24:31.344Z,20544
2017-04-23T09:25:31.066Z,21056
2017-04-23T09:26:31.390Z,22208
2017-04-23T09:27:31.414Z,14472
2017-04-23T09:28:31.437Z,24992
2017-04-23T09:29:46.074Z,22400
2017-04-23T09:31:31.503Z,14564
2017-04-23T09:32:46.145Z,14524
2017-04-23T09:33:31.558Z,20768
2017-04-23T09:34:31.578Z,15256
2017-04-23T09:35:31.601Z,18048
2017-04-23T09:36:31.625Z,21632
2017-04-23T09:37:31.649Z,14296
2017-04-23T09:38:31.674Z,15148
2017-04-23T09:39:31.697Z,22304
2017-04-23T09:40:31.720Z,15912
2017-04-23T09:41:31.743Z,14112
2017-04-23T09:42:31.768Z,13856
2017-04-23T09:43:31.795Z,11884
2017-04-23T09:44:31.817Z,8636
2017-04-23T09:45:31.843Z,5828
2017-04-23T09:46:31.566Z,3448
2017-04-23T09:47:46.505Z,2040
2017-04-23T09:48:31.914Z,1804
2017-04-23T09:49:31.936Z,1720
2017-04-23T09:50:32.013Z,1596
2017-04-23T09:51:32.033Z,1600
2017-04-23T09:52:32.010Z,1648
2017-04-23T09:53:32.035Z,1972
2017-04-23T09:54:32.054Z,2528
2017-04-23T09:55:46.694Z,3172
2017-04-23T09:56:32.097Z,3628
2017-04-23T09:57:32.122Z,4608
2017-04-23T09:58:32.143Z,5804
2017-04-23T10:01:31.906Z,8692
2017-04-23T10:02:32.230Z,10304
2017-04-23T10:03:32.255Z,13132
2017-04-23T10:04:32.274Z,19168
2017-04-23T10:05:32.298Z,19488
2017-04-23T10:06:32.329Z,19040
2017-04-23T10:07:32.343Z,19968
2017-04-23T10:08:32.367Z,18560
2017-04-23T10:09:32.392Z,18720
2017-04-23T10:10:32.411Z,19040
2017-04-23T10:11:32.431Z,18688
2017-04-23T10:12:47.073Z,18144
2017-04-23T10:13:32.485Z,17952
2017-04-23T10:14:32.507Z,11916
2017-04-23T10:15:47.154Z,14644
2017-04-23T10:16:32.555Z,17824
2017-04-23T10:17:47.187Z,12792
2017-04-23T10:18:32.289Z,15104
2017-04-23T10:19:46.931Z,12680
2017-04-23T10:20:32.651Z,11116
2017-04-23T10:21:32.671Z,11412
2017-04-23T10:22:32.690Z,11176
2017-04-23T10:23:32.719Z,11212
2017-04-23T10:24:32.736Z,10864
2017-04-23T10:25:32.760Z,9788
2017-04-23T10:26:47.405Z,8780
2017-04-23T10:27:32.810Z,7772
2017-04-23T10:28:47.451Z,5088
2017-04-23T10:29:32.866Z,4212
2017-04-23T10:30:32.884Z,3600
2017-04-23T10:31:32.901Z,3272
2017-04-23T10:34:32.995Z,1968
2017-04-23T10:35:47.611Z,1784
2017-04-23T10:36:32.717Z,1940
2017-04-23T10:37:33.041Z,2324
2017-04-23T10:38:33.068Z,2932
2017-04-23T10:39:33.090Z,3932
2017-04-23T10:40:33.111Z,5236
2017-04-23T10:41:33.139Z,6396
2017-04-23T10:42:33.156Z,7732
2017-04-23T10:43:33.180Z,8500
2017-04-23T10:44:47.817Z,8020
2017-04-23T10:45:33.222Z,6560
2017-04-23T10:46:33.245Z,5528
2017-04-23T10:47:33.266Z,5632
2017-04-23T10:48:33.286Z,6360
2017-04-23T10:49:33.314Z,6816
2017-04-23T10:50:33.326Z,7076
2017-04-23T10:51:47.966Z,7352
2017-04-23T10:52:33.371Z,7268
2017-04-23T10:53:33.399Z,6912
2017-04-23T10:54:33.416Z,6128
2017-04-23T10:55:33.435Z,5452
2017-04-23T10:56:33.459Z,5400
2017-04-23T10:57:33.481Z,5568
2017-04-23T10:58:33.506Z,11012
2017-04-23T10:59:48.143Z,10972
2017-04-23T11:00:33.546Z,10628
2017-04-23T11:01:33.571Z,10300
2017-04-23T11:02:33.593Z,10144
2017-04-23T11:03:33.611Z,7556
2017-04-23T11:04:33.635Z,6616
2017-04-23T11:05:33.655Z,6460
2017-04-23T11:07:48.325Z,6196
2017-04-23T11:08:33.733Z,6624
2017-04-23T11:09:33.742Z,6668
2017-04-23T11:10:33.761Z,6464
2017-04-23T11:11:33.784Z,5972
2017-04-23T11:12:33.513Z,5924
2017-04-23T11:13:33.827Z,5652
2017-04-23T11:14:33.849Z,5956
2017-04-23T11:15:48.185Z,5944
2017-04-23T11:16:33.892Z,6312
2017-04-23T11:17:33.610Z,6884
2017-04-23T11:18:33.937Z,7712
2017-04-23T11:19:33.959Z,8040
2017-04-23T11:20:48.596Z,8024
2017-04-23T11:21:34.003Z,7528
2017-04-23T11:22:48.639Z,6508
2017-04-23T11:23:33.744Z,5900
2017-04-23T11:24:34.069Z,4380
2017-04-23T11:25:34.095Z,3224
2017-04-23T11:26:48.737Z,2304
2017-04-23T11:27:34.133Z,1988
2017-04-23T11:28:34.153Z,1952
2017-04-23T11:29:34.180Z,2392
2017-04-23T11:30:33.899Z,2912
2017-04-23T11:31:34.217Z,3564
2017-04-23T11:32:34.242Z,4300
2017-04-23T11:33:34.265Z,5036
2017-04-23T11:34:34.287Z,5580
2017-04-23T11:35:34.397Z,7868
2017-04-23T11:36:34.327Z,9076
2017-04-23T11:37:34.344Z,9572
2017-04-23T11:38:34.376Z,10868
2017-04-23T11:39:34.390Z,11672
2017-04-23T11:41:34.432Z,12052
2017-04-23T11:42:34.457Z,10040
2017-04-23T11:43:34.170Z,9164
2017-04-23T11:44:34.497Z,8592
2017-04-23T11:45:34.515Z,7824
2017-04-23T11:46:34.539Z,7180
2017-04-23T11:47:49.178Z,6736
2017-04-23T11:49:34.602Z,6812
2017-04-23T11:50:34.625Z,6844
2017-04-23T11:52:34.667Z,7708
2017-04-23T11:53:34.686Z,7848
2017-04-23T11:54:49.328Z,8028
2017-04-23T11:56:34.751Z,8264
2017-04-23T11:57:34.772Z,9740
2017-04-23T11:58:34.802Z,9584
2017-04-23T11:59:34.812Z,9000
2017-04-23T12:00:34.835Z,7264
2017-04-23T12:01:34.857Z,6876
2017-04-23T12:02:34.879Z,9044
2017-04-23T12:03:34.899Z,7848
2017-04-23T12:04:34.925Z,6836
2017-04-23T12:05:34.945Z,8660
2017-04-23T12:06:34.962Z,7240
2017-04-23T12:07:49.603Z,6868
2017-04-23T12:08:49.625Z,6464
2017-04-23T12:09:34.728Z,6620
2017-04-23T12:10:49.671Z,7108
2017-04-23T12:11:35.074Z,6600
2017-04-23T12:12:35.095Z,7704
2017-04-23T12:13:35.116Z,8648
2017-04-23T12:14:35.137Z,7816
2017-04-23T12:15:34.854Z,6780
2017-04-23T12:16:35.187Z,7700
2017-04-23T12:17:35.200Z,8052
2017-04-23T12:18:35.228Z,8172
2017-04-23T12:19:35.247Z,7744
2017-04-23T12:20:35.269Z,7456
2017-04-23T12:21:49.606Z,7676
2017-04-23T12:22:35.310Z,8512
2017-04-23T12:24:35.357Z,8120
2017-04-23T12:25:35.381Z,6612
2017-04-23T12:26:49.708Z,6460
2017-04-23T12:27:35.425Z,6492
2017-04-23T12:28:50.065Z,7196
2017-04-23T12:29:35.461Z,8444
2017-04-23T12:30:35.484Z,7876
2017-04-23T12:31:35.201Z,9332
2017-04-23T12:32:35.546Z,7212
2017-04-23T12:33:35.550Z,7468
2017-04-23T12:34:35.586Z,5952
2017-04-23T12:35:35.620Z,7528
2017-04-23T12:36:35.721Z,7704
2017-04-23T12:38:35.707Z,6088
2017-04-23T12:39:50.347Z,6812
2017-04-23T12:40:35.929Z,7384
2017-04-23T12:41:35.761Z,6268
2017-04-23T12:42:50.375Z,6336
2017-04-23T12:43:35.786Z,6168
2017-04-23T12:44:35.877Z,5824
2017-04-23T12:45:35.830Z,5760
2017-04-23T12:46:35.916Z,7372
2017-04-23T12:47:35.912Z,6492
2017-04-23T12:48:35.938Z,5792
2017-04-23T12:49:35.981Z,5480
2017-04-23T12:50:35.833Z,5244
2017-04-23T12:51:36.013Z,5128
2017-04-23T12:52:36.057Z,5088
2017-04-23T12:53:36.088Z,5852
2017-04-23T12:54:36.068Z,7116
2017-04-23T12:55:35.896Z,5536
2017-04-23T12:58:05.311Z,7848
2017-04-23T12:58:36.158Z,7416
2017-04-23T12:59:36.157Z,6352
2017-04-23T13:01:36.258Z,6804
2017-04-23T13:02:36.275Z,7120
2017-04-23T13:03:36.264Z,5628
2017-04-23T13:04:35.969Z,6824
2017-04-23T13:05:35.990Z,6620
2017-04-23T13:06:36.315Z,6452
2017-04-23T13:07:50.925Z,6612
2017-04-23T13:08:36.395Z,6568
2017-04-23T13:09:36.438Z,6560
2017-04-23T13:10:36.396Z,6608
2017-04-23T13:12:36.433Z,6672
2017-04-23T13:14:51.109Z,6636
2017-04-23T13:15:36.508Z,6636
2017-04-23T13:16:36.566Z,6656
2017-04-23T13:17:51.145Z,6692
2017-04-23T13:18:36.591Z,6696
2017-04-23T13:20:36.594Z,6900
2017-04-23T13:21:36.736Z,7164
2017-04-23T13:22:36.635Z,7364
2017-04-23T13:23:51.340Z,7776
2017-04-23T13:24:36.724Z,8316
2017-04-23T13:25:51.328Z,7172
2017-04-23T13:26:36.763Z,8780
2017-04-23T13:27:36.779Z,8632
2017-04-23T13:28:36.960Z,9092
2017-04-23T13:29:51.428Z,10152
2017-04-23T13:30:36.805Z,7444
2017-04-23T13:31:51.581Z,10452
2017-04-23T13:32:36.579Z,10868
2017-04-23T13:33:36.868Z,7764
2017-04-23T13:35:36.977Z,10400
2017-04-23T13:36:37.010Z,10180
2017-04-23T13:37:37.026Z,9892
2017-04-23T13:38:36.999Z,8988
2017-04-23T13:39:36.872Z,9984
2017-04-23T13:40:37.101Z,10520
2017-04-23T13:42:37.089Z,9512
2017-04-23T13:43:37.146Z,9332
2017-04-23T13:44:37.132Z,9580
2017-04-23T13:45:51.766Z,9680
2017-04-23T13:46:51.793Z,9612
2017-04-23T13:47:36.900Z,9592
2017-04-23T13:48:36.977Z,6944
2017-04-23T13:49:51.835Z,6084
2017-04-23T13:50:36.980Z,6012
2017-04-23T13:51:37.349Z,5804
2017-04-23T13:52:37.076Z,5228
2017-04-23T13:54:37.371Z,3632
2017-04-23T13:55:37.387Z,3404
2017-04-23T13:56:37.449Z,3372
2017-04-23T13:57:37.492Z,2908
2017-04-23T13:58:37.485Z,2064
2017-04-23T13:59:37.481Z,1280
2017-04-23T14:00:37.583Z,1004
2017-04-23T14:01:52.163Z,1008
2017-04-23T14:03:37.558Z,1308
2017-04-23T14:04:37.666Z,1588
2017-04-23T14:05:37.647Z,1792
2017-04-23T14:06:37.698Z,1928
2017-04-23T14:07:37.736Z,2112
2017-04-23T14:08:37.709Z,2212
2017-04-23T14:09:38.281Z,2444
2017-04-23T14:10:38.218Z,2588
2017-04-23T14:11:38.520Z,2908
2017-04-23T14:12:38.305Z,3540
2017-04-23T14:14:52.436Z,4676
2017-04-23T14:15:38.272Z,4888
2017-04-23T14:16:38.054Z,5280
2017-04-23T14:17:52.625Z,6064
2017-04-23T14:18:37.695Z,6860
2017-04-23T14:19:38.492Z,8456
2017-04-23T14:20:38.832Z,8440
2017-04-23T14:21:38.860Z,8968
2017-04-23T14:22:52.561Z,10768
2017-04-23T14:23:38.030Z,10728
2017-04-23T14:24:37.994Z,10504
2017-04-23T14:25:38.121Z,7784
2017-04-23T14:26:37.794Z,7344
2017-04-23T14:27:52.408Z,7008
2017-04-23T14:28:38.135Z,7060
2017-04-23T14:29:52.710Z,9556
2017-04-23T14:30:38.120Z,9672
2017-04-23T14:31:38.130Z,10056
2017-04-23T14:33:07.394Z,9240
2017-04-23T14:33:52.786Z,9192
2017-04-23T14:34:38.300Z,8972
2017-04-23T14:35:38.242Z,7384
2017-04-23T14:36:38.271Z,7356
2017-04-23T14:37:38.267Z,7040
2017-04-23T14:38:38.288Z,6716
2017-04-23T14:40:38.402Z,5636
2017-04-23T14:42:52.984Z,3504